sensor_id;sensor_type;location;lat;lon;timestamp;P1;durP1;ratioP1;P2;durP2;ratioP2
81896;SDS011;71360;43.506;1.500;2023-11-18T00:02:19;10.07;;;3.78;;
81896;SDS011;71360;43.506;1.500;2023-11-18T00:04:44;10.97;;;3.70;;
81896;SDS011;71360;43.506;1.500;2023-11-18T00:07:09;11.20;;;3.97;;
81896;SDS011;71360;43.506;1.500;2023-11-18T00:09:35;12.07;;;3.92;;
81896;SDS011;71360;43.506;1.500;2023-11-18T00:12:01;9.33;;;3.40;;
81896;SDS011;71360;43.506;1.500;2023-11-18T00:14:29;13.05;;;3.38;;
81896;SDS011;71360;43.506;1.500;2023-11-18T00:16:54;10.40;;;3.33;;
81896;SDS011;71360;43.506;1.500;2023-11-18T00:19:20;10.07;;;3.23;;
81896;SDS011;71360;43.506;1.500;2023-11-18T00:21:45;9.97;;;3.50;;
81896;SDS011;71360;43.506;1.500;2023-11-18T00:24:10;10.43;;;3.30;;
81896;SDS011;71360;43.506;1.500;2023-11-18T00:26:36;10.45;;;3.17;;
81896;SDS011;71360;43.506;1.500;2023-11-18T00:29:01;7.80;;;2.97;;
81896;SDS011;71360;43.506;1.500;2023-11-18T00:31:27;8.07;;;3.07;;
81896;SDS011;71360;43.506;1.500;2023-11-18T00:33:52;8.70;;;3.33;;
81896;SDS011;71360;43.506;1.500;2023-11-18T00:36:18;9.47;;;3.10;;
81896;SDS011;71360;43.506;1.500;2023-11-18T00:38:43;9.63;;;3.00;;
81896;SDS011;71360;43.506;1.500;2023-11-18T00:41:09;11.05;;;2.90;;
81896;SDS011;71360;43.506;1.500;2023-11-18T00:43:34;7.77;;;2.77;;
81896;SDS011;71360;43.506;1.500;2023-11-18T00:46:00;9.60;;;3.27;;
81896;SDS011;71360;43.506;1.500;2023-11-18T00:48:26;12.85;;;2.92;;
81896;SDS011;71360;43.506;1.500;2023-11-18T00:50:51;8.37;;;3.10;;
81896;SDS011;71360;43.506;1.500;2023-11-18T00:53:17;11.63;;;3.13;;
81896;SDS011;71360;43.506;1.500;2023-11-18T00:55:42;9.38;;;2.60;;
81896;SDS011;71360;43.506;1.500;2023-11-18T00:58:08;6.57;;;2.43;;
81896;SDS011;71360;43.506;1.500;2023-11-18T01:00:33;8.23;;;2.43;;
81896;SDS011;71360;43.506;1.500;2023-11-18T01:02:59;6.55;;;2.50;;
81896;SDS011;71360;43.506;1.500;2023-11-18T01:05:24;8.33;;;2.50;;
81896;SDS011;71360;43.506;1.500;2023-11-18T01:07:50;8.77;;;3.00;;
81896;SDS011;71360;43.506;1.500;2023-11-18T01:10:15;8.00;;;2.60;;
81896;SDS011;71360;43.506;1.500;2023-11-18T01:12:41;10.45;;;2.65;;
81896;SDS011;71360;43.506;1.500;2023-11-18T01:15:07;10.20;;;2.80;;
81896;SDS011;71360;43.506;1.500;2023-11-18T01:17:35;9.95;;;3.00;;
81896;SDS011;71360;43.506;1.500;2023-11-18T01:20:01;11.20;;;3.00;;
81896;SDS011;71360;43.506;1.500;2023-11-18T01:22:33;7.47;;;2.60;;
81896;SDS011;71360;43.506;1.500;2023-11-18T01:24:59;8.57;;;2.80;;
81896;SDS011;71360;43.506;1.500;2023-11-18T01:27:25;9.27;;;3.03;;
81896;SDS011;71360;43.506;1.500;2023-11-18T01:29:50;8.80;;;2.80;;
81896;SDS011;71360;43.506;1.500;2023-11-18T01:32:16;8.73;;;3.10;;
81896;SDS011;71360;43.506;1.500;2023-11-18T01:34:42;11.38;;;3.30;;
81896;SDS011;71360;43.506;1.500;2023-11-18T01:37:09;8.23;;;3.20;;
81896;SDS011;71360;43.506;1.500;2023-11-18T01:39:35;7.15;;;3.20;;
81896;SDS011;71360;43.506;1.500;2023-11-18T01:42:04;8.25;;;2.67;;
81896;SDS011;71360;43.506;1.500;2023-11-18T01:44:30;11.77;;;2.90;;
81896;SDS011;71360;43.506;1.500;2023-11-18T01:46:56;7.75;;;2.90;;
81896;SDS011;71360;43.506;1.500;2023-11-18T01:49:22;8.63;;;3.30;;
81896;SDS011;71360;43.506;1.500;2023-11-18T01:51:52;11.63;;;3.05;;
81896;SDS011;71360;43.506;1.500;2023-11-18T01:54:19;7.23;;;2.67;;
81896;SDS011;71360;43.506;1.500;2023-11-18T01:56:48;12.38;;;3.10;;
81896;SDS011;71360;43.506;1.500;2023-11-18T01:59:14;9.65;;;2.75;;
81896;SDS011;71360;43.506;1.500;2023-11-18T02:01:47;10.57;;;3.22;;
81896;SDS011;71360;43.506;1.500;2023-11-18T02:04:14;7.37;;;2.87;;
81896;SDS011;71360;43.506;1.500;2023-11-18T02:06:40;9.40;;;3.10;;
81896;SDS011;71360;43.506;1.500;2023-11-18T02:09:06;8.48;;;2.78;;
81896;SDS011;71360;43.506;1.500;2023-11-18T02:11:36;10.30;;;3.23;;
81896;SDS011;71360;43.506;1.500;2023-11-18T02:14:06;9.80;;;2.90;;
81896;SDS011;71360;43.506;1.500;2023-11-18T02:16:38;8.20;;;2.97;;
81896;SDS011;71360;43.506;1.500;2023-11-18T02:19:21;7.22;;;2.80;;
81896;SDS011;71360;43.506;1.500;2023-11-18T02:21:49;9.43;;;2.80;;
81896;SDS011;71360;43.506;1.500;2023-11-18T02:26:58;8.63;;;2.55;;
81896;SDS011;71360;43.506;1.500;2023-11-18T02:29:25;10.57;;;3.20;;
81896;SDS011;71360;43.506;1.500;2023-11-18T02:31:56;10.35;;;2.70;;
81896;SDS011;71360;43.506;1.500;2023-11-18T02:34:28;9.20;;;3.00;;
81896;SDS011;71360;43.506;1.500;2023-11-18T02:36:57;10.63;;;2.90;;
81896;SDS011;71360;43.506;1.500;2023-11-18T02:39:35;8.82;;;2.70;;
81896;SDS011;71360;43.506;1.500;2023-11-18T02:42:04;9.18;;;2.53;;
81896;SDS011;71360;43.506;1.500;2023-11-18T02:44:33;8.77;;;3.00;;
81896;SDS011;71360;43.506;1.500;2023-11-18T02:47:00;8.43;;;2.50;;
81896;SDS011;71360;43.506;1.500;2023-11-18T02:49:26;9.15;;;3.63;;
81896;SDS011;71360;43.506;1.500;2023-11-18T02:51:52;12.43;;;4.43;;
81896;SDS011;71360;43.506;1.500;2023-11-18T02:54:18;10.40;;;4.03;;
81896;SDS011;71360;43.506;1.500;2023-11-18T02:56:44;14.27;;;4.57;;
81896;SDS011;71360;43.506;1.500;2023-11-18T02:59:10;11.40;;;4.70;;
81896;SDS011;71360;43.506;1.500;2023-11-18T03:01:36;11.80;;;4.27;;
81896;SDS011;71360;43.506;1.500;2023-11-18T03:04:04;8.95;;;4.63;;
81896;SDS011;71360;43.506;1.500;2023-11-18T03:06:30;12.88;;;4.85;;
81896;SDS011;71360;43.506;1.500;2023-11-18T03:08:57;13.45;;;5.63;;
81896;SDS011;71360;43.506;1.500;2023-11-18T03:11:22;11.13;;;5.20;;
81896;SDS011;71360;43.506;1.500;2023-11-18T03:13:48;12.97;;;5.57;;
81896;SDS011;71360;43.506;1.500;2023-11-18T03:16:13;15.27;;;5.27;;
81896;SDS011;71360;43.506;1.500;2023-11-18T03:18:40;14.07;;;5.68;;
81896;SDS011;71360;43.506;1.500;2023-11-18T03:21:12;12.77;;;5.68;;
81896;SDS011;71360;43.506;1.500;2023-11-18T03:23:38;15.82;;;5.75;;
81896;SDS011;71360;43.506;1.500;2023-11-18T03:26:05;14.30;;;6.35;;
81896;SDS011;71360;43.506;1.500;2023-11-18T03:28:31;13.60;;;5.50;;
81896;SDS011;71360;43.506;1.500;2023-11-18T03:30:57;13.57;;;5.80;;
81896;SDS011;71360;43.506;1.500;2023-11-18T03:33:22;14.27;;;6.30;;
81896;SDS011;71360;43.506;1.500;2023-11-18T03:35:48;11.20;;;5.53;;
81896;SDS011;71360;43.506;1.500;2023-11-18T03:38:13;11.15;;;5.30;;
81896;SDS011;71360;43.506;1.500;2023-11-18T03:40:40;13.10;;;5.50;;
81896;SDS011;71360;43.506;1.500;2023-11-18T03:43:06;12.05;;;4.97;;
81896;SDS011;71360;43.506;1.500;2023-11-18T03:45:33;11.52;;;5.07;;
81896;SDS011;71360;43.506;1.500;2023-11-18T03:47:58;13.03;;;4.67;;
81896;SDS011;71360;43.506;1.500;2023-11-18T03:50:25;10.90;;;4.40;;
81896;SDS011;71360;43.506;1.500;2023-11-18T03:52:51;12.47;;;4.60;;
81896;SDS011;71360;43.506;1.500;2023-11-18T03:55:16;10.77;;;4.47;;
81896;SDS011;71360;43.506;1.500;2023-11-18T03:57:43;13.93;;;4.70;;
81896;SDS011;71360;43.506;1.500;2023-11-18T04:00:10;14.45;;;5.00;;
81896;SDS011;71360;43.506;1.500;2023-11-18T04:02:36;10.77;;;5.18;;
81896;SDS011;71360;43.506;1.500;2023-11-18T04:05:02;11.75;;;4.82;;
81896;SDS011;71360;43.506;1.500;2023-11-18T04:07:28;10.30;;;4.37;;
81896;SDS011;71360;43.506;1.500;2023-11-18T04:09:54;10.95;;;4.47;;
81896;SDS011;71360;43.506;1.500;2023-11-18T04:12:19;10.27;;;4.00;;
81896;SDS011;71360;43.506;1.500;2023-11-18T04:14:45;13.17;;;3.80;;
81896;SDS011;71360;43.506;1.500;2023-11-18T04:17:10;11.40;;;4.10;;
81896;SDS011;71360;43.506;1.500;2023-11-18T04:19:36;10.10;;;3.97;;
81896;SDS011;71360;43.506;1.500;2023-11-18T04:22:02;10.10;;;3.90;;
81896;SDS011;71360;43.506;1.500;2023-11-18T04:24:29;12.25;;;4.30;;
81896;SDS011;71360;43.506;1.500;2023-11-18T04:26:55;11.80;;;4.13;;
81896;SDS011;71360;43.506;1.500;2023-11-18T04:29:20;11.52;;;3.65;;
81896;SDS011;71360;43.506;1.500;2023-11-18T04:31:46;11.38;;;3.67;;
81896;SDS011;71360;43.506;1.500;2023-11-18T04:34:12;10.07;;;3.50;;
81896;SDS011;71360;43.506;1.500;2023-11-18T04:36:40;9.82;;;3.70;;
81896;SDS011;71360;43.506;1.500;2023-11-18T04:39:06;9.37;;;3.70;;
81896;SDS011;71360;43.506;1.500;2023-11-18T04:41:32;10.02;;;3.67;;
81896;SDS011;71360;43.506;1.500;2023-11-18T04:43:58;10.60;;;4.00;;
81896;SDS011;71360;43.506;1.500;2023-11-18T04:46:23;10.32;;;4.50;;
81896;SDS011;71360;43.506;1.500;2023-11-18T04:48:49;9.73;;;4.10;;
81896;SDS011;71360;43.506;1.500;2023-11-18T04:51:14;46.30;;;20.33;;
81896;SDS011;71360;43.506;1.500;2023-11-18T04:53:39;22.30;;;8.70;;
81896;SDS011;71360;43.506;1.500;2023-11-18T04:56:05;14.97;;;5.70;;
81896;SDS011;71360;43.506;1.500;2023-11-18T04:58:35;22.75;;;7.32;;
81896;SDS011;71360;43.506;1.500;2023-11-18T05:01:01;55.65;;;16.73;;
81896;SDS011;71360;43.506;1.500;2023-11-18T05:03:27;58.43;;;18.80;;
81896;SDS011;71360;43.506;1.500;2023-11-18T05:05:52;47.03;;;15.73;;
81896;SDS011;71360;43.506;1.500;2023-11-18T05:08:19;20.20;;;6.90;;
81896;SDS011;71360;43.506;1.500;2023-11-18T05:10:49;13.90;;;4.70;;
81896;SDS011;71360;43.506;1.500;2023-11-18T05:13:15;11.27;;;4.10;;
81896;SDS011;71360;43.506;1.500;2023-11-18T05:15:45;13.90;;;3.92;;
81896;SDS011;71360;43.506;1.500;2023-11-18T05:18:14;11.80;;;4.30;;
81896;SDS011;71360;43.506;1.500;2023-11-18T05:20:48;12.20;;;3.57;;
81896;SDS011;71360;43.506;1.500;2023-11-18T05:23:14;10.20;;;3.75;;
81896;SDS011;71360;43.506;1.500;2023-11-18T05:25:39;11.13;;;3.90;;
81896;SDS011;71360;43.506;1.500;2023-11-18T05:28:06;14.40;;;4.83;;
81896;SDS011;71360;43.506;1.500;2023-11-18T05:30:35;11.27;;;5.07;;
81896;SDS011;71360;43.506;1.500;2023-11-18T05:33:04;13.15;;;5.10;;
81896;SDS011;71360;43.506;1.500;2023-11-18T05:35:30;12.98;;;4.60;;
81896;SDS011;71360;43.506;1.500;2023-11-18T05:37:56;12.82;;;4.40;;
81896;SDS011;71360;43.506;1.500;2023-11-18T05:40:22;14.87;;;4.00;;
81896;SDS011;71360;43.506;1.500;2023-11-18T05:42:48;10.70;;;3.70;;
81896;SDS011;71360;43.506;1.500;2023-11-18T05:45:17;6.82;;;3.20;;
81896;SDS011;71360;43.506;1.500;2023-11-18T05:47:55;9.85;;;3.28;;
81896;SDS011;71360;43.506;1.500;2023-11-18T05:50:21;10.73;;;3.40;;
81896;SDS011;71360;43.506;1.500;2023-11-18T05:52:47;9.23;;;2.72;;
81896;SDS011;71360;43.506;1.500;2023-11-18T05:55:13;9.67;;;2.97;;
81896;SDS011;71360;43.506;1.500;2023-11-18T05:57:38;9.77;;;2.90;;
81896;SDS011;71360;43.506;1.500;2023-11-18T06:00:04;8.50;;;2.90;;
81896;SDS011;71360;43.506;1.500;2023-11-18T06:02:30;6.32;;;2.63;;
81896;SDS011;71360;43.506;1.500;2023-11-18T06:04:56;11.70;;;2.50;;
81896;SDS011;71360;43.506;1.500;2023-11-18T06:07:22;8.50;;;2.30;;
81896;SDS011;71360;43.506;1.500;2023-11-18T06:09:48;7.93;;;2.23;;
81896;SDS011;71360;43.506;1.500;2023-11-18T06:12:13;7.68;;;1.92;;
81896;SDS011;71360;43.506;1.500;2023-11-18T06:14:39;7.23;;;2.03;;
81896;SDS011;71360;43.506;1.500;2023-11-18T06:17:06;7.00;;;2.00;;
81896;SDS011;71360;43.506;1.500;2023-11-18T06:19:33;6.67;;;2.00;;
81896;SDS011;71360;43.506;1.500;2023-11-18T06:21:59;9.15;;;2.00;;
81896;SDS011;71360;43.506;1.500;2023-11-18T06:24:24;7.70;;;1.90;;
81896;SDS011;71360;43.506;1.500;2023-11-18T06:26:50;7.43;;;1.80;;
81896;SDS011;71360;43.506;1.500;2023-11-18T06:29:16;8.60;;;1.80;;
81896;SDS011;71360;43.506;1.500;2023-11-18T06:31:42;8.53;;;1.67;;
81896;SDS011;71360;43.506;1.500;2023-11-18T06:34:07;6.23;;;1.67;;
81896;SDS011;71360;43.506;1.500;2023-11-18T06:36:33;7.35;;;1.63;;
81896;SDS011;71360;43.506;1.500;2023-11-18T06:38:59;8.73;;;2.10;;
81896;SDS011;71360;43.506;1.500;2023-11-18T06:41:25;6.30;;;1.90;;
81896;SDS011;71360;43.506;1.500;2023-11-18T06:43:58;7.30;;;2.20;;
81896;SDS011;71360;43.506;1.500;2023-11-18T06:46:28;9.05;;;2.47;;
81896;SDS011;71360;43.506;1.500;2023-11-18T06:49:04;9.35;;;2.15;;
81896;SDS011;71360;43.506;1.500;2023-11-18T06:51:32;7.55;;;2.47;;
81896;SDS011;71360;43.506;1.500;2023-11-18T06:54:00;9.48;;;2.58;;
81896;SDS011;71360;43.506;1.500;2023-11-18T06:56:29;7.27;;;2.57;;
81896;SDS011;71360;43.506;1.500;2023-11-18T06:58:55;9.65;;;2.70;;
81896;SDS011;71360;43.506;1.500;2023-11-18T07:01:20;7.30;;;3.00;;
81896;SDS011;71360;43.506;1.500;2023-11-18T07:03:46;7.95;;;2.40;;
81896;SDS011;71360;43.506;1.500;2023-11-18T07:06:20;8.18;;;2.55;;
81896;SDS011;71360;43.506;1.500;2023-11-18T07:08:47;9.70;;;2.70;;
81896;SDS011;71360;43.506;1.500;2023-11-18T07:11:14;7.15;;;2.70;;
81896;SDS011;71360;43.506;1.500;2023-11-18T07:13:40;8.02;;;2.88;;
81896;SDS011;71360;43.506;1.500;2023-11-18T07:16:07;9.38;;;2.80;;
81896;SDS011;71360;43.506;1.500;2023-11-18T07:18:34;6.65;;;2.63;;
81896;SDS011;71360;43.506;1.500;2023-11-18T07:21:03;7.83;;;3.00;;
81896;SDS011;71360;43.506;1.500;2023-11-18T07:23:30;7.55;;;3.15;;
81896;SDS011;71360;43.506;1.500;2023-11-18T07:25:56;8.60;;;3.47;;
81896;SDS011;71360;43.506;1.500;2023-11-18T07:28:22;11.32;;;4.10;;
81896;SDS011;71360;43.506;1.500;2023-11-18T07:30:48;9.03;;;3.97;;
81896;SDS011;71360;43.506;1.500;2023-11-18T07:33:16;8.60;;;3.80;;
81896;SDS011;71360;43.506;1.500;2023-11-18T07:35:42;10.18;;;3.80;;
81896;SDS011;71360;43.506;1.500;2023-11-18T07:38:08;12.70;;;3.83;;
81896;SDS011;71360;43.506;1.500;2023-11-18T07:40:35;9.02;;;3.60;;
81896;SDS011;71360;43.506;1.500;2023-11-18T07:43:02;8.50;;;3.50;;
81896;SDS011;71360;43.506;1.500;2023-11-18T07:45:28;9.63;;;3.37;;
81896;SDS011;71360;43.506;1.500;2023-11-18T07:47:57;8.73;;;3.22;;
81896;SDS011;71360;43.506;1.500;2023-11-18T07:50:22;7.50;;;3.60;;
81896;SDS011;71360;43.506;1.500;2023-11-18T07:52:48;11.73;;;3.83;;
81896;SDS011;71360;43.506;1.500;2023-11-18T07:55:16;10.60;;;4.10;;
81896;SDS011;71360;43.506;1.500;2023-11-18T07:57:41;9.43;;;4.50;;
81896;SDS011;71360;43.506;1.500;2023-11-18T08:00:07;9.98;;;4.47;;
81896;SDS011;71360;43.506;1.500;2023-11-18T08:02:36;9.23;;;3.83;;
81896;SDS011;71360;43.506;1.500;2023-11-18T08:05:06;11.68;;;4.43;;
81896;SDS011;71360;43.506;1.500;2023-11-18T08:07:38;10.73;;;4.80;;
81896;SDS011;71360;43.506;1.500;2023-11-18T08:10:03;12.30;;;5.03;;
81896;SDS011;71360;43.506;1.500;2023-11-18T08:12:32;9.80;;;5.40;;
81896;SDS011;71360;43.506;1.500;2023-11-18T08:14:59;11.40;;;5.70;;
81896;SDS011;71360;43.506;1.500;2023-11-18T08:17:25;11.52;;;6.38;;
81896;SDS011;71360;43.506;1.500;2023-11-18T08:19:52;13.30;;;6.10;;
81896;SDS011;71360;43.506;1.500;2023-11-18T08:22:18;11.35;;;5.90;;
81896;SDS011;71360;43.506;1.500;2023-11-18T08:24:44;8.55;;;4.18;;
81896;SDS011;71360;43.506;1.500;2023-11-18T08:27:11;9.15;;;3.78;;
81896;SDS011;71360;43.506;1.500;2023-11-18T08:29:37;10.27;;;3.80;;
81896;SDS011;71360;43.506;1.500;2023-11-18T08:32:04;9.95;;;4.20;;
81896;SDS011;71360;43.506;1.500;2023-11-18T08:34:31;12.65;;;4.47;;
81896;SDS011;71360;43.506;1.500;2023-11-18T08:36:58;9.03;;;4.37;;
81896;SDS011;71360;43.506;1.500;2023-11-18T08:39:25;10.48;;;4.90;;
81896;SDS011;71360;43.506;1.500;2023-11-18T08:41:51;8.35;;;4.50;;
81896;SDS011;71360;43.506;1.500;2023-11-18T08:44:16;10.30;;;4.70;;
81896;SDS011;71360;43.506;1.500;2023-11-18T08:46:42;12.45;;;4.78;;
81896;SDS011;71360;43.506;1.500;2023-11-18T08:49:08;10.10;;;4.85;;
81896;SDS011;71360;43.506;1.500;2023-11-18T08:51:40;10.70;;;4.80;;
81896;SDS011;71360;43.506;1.500;2023-11-18T08:54:08;19.58;;;9.80;;
81896;SDS011;71360;43.506;1.500;2023-11-18T08:56:52;10.23;;;5.13;;
81896;SDS011;71360;43.506;1.500;2023-11-18T08:59:19;10.68;;;4.68;;
81896;SDS011;71360;43.506;1.500;2023-11-18T09:01:52;8.80;;;4.57;;
81896;SDS011;71360;43.506;1.500;2023-11-18T09:04:21;11.38;;;4.63;;
81896;SDS011;71360;43.506;1.500;2023-11-18T09:06:48;13.20;;;4.80;;
81896;SDS011;71360;43.506;1.500;2023-11-18T09:09:16;11.67;;;4.40;;
81896;SDS011;71360;43.506;1.500;2023-11-18T09:11:42;9.55;;;4.45;;
81896;SDS011;71360;43.506;1.500;2023-11-18T09:14:07;7.67;;;4.00;;
81896;SDS011;71360;43.506;1.500;2023-11-18T09:16:34;17.63;;;6.88;;
81896;SDS011;71360;43.506;1.500;2023-11-18T09:19:04;24.55;;;11.40;;
81896;SDS011;71360;43.506;1.500;2023-11-18T09:21:31;20.27;;;9.13;;
81896;SDS011;71360;43.506;1.500;2023-11-18T09:24:00;15.73;;;8.02;;
81896;SDS011;71360;43.506;1.500;2023-11-18T09:26:30;15.73;;;7.85;;
81896;SDS011;71360;43.506;1.500;2023-11-18T09:28:55;13.90;;;7.18;;
81896;SDS011;71360;43.506;1.500;2023-11-18T09:31:22;11.70;;;6.70;;
81896;SDS011;71360;43.506;1.500;2023-11-18T09:33:47;9.50;;;4.83;;
81896;SDS011;71360;43.506;1.500;2023-11-18T09:36:17;11.65;;;4.50;;
81896;SDS011;71360;43.506;1.500;2023-11-18T09:38:43;9.18;;;3.25;;
81896;SDS011;71360;43.506;1.500;2023-11-18T09:41:11;8.43;;;3.20;;
81896;SDS011;71360;43.506;1.500;2023-11-18T09:43:38;7.25;;;3.60;;
81896;SDS011;71360;43.506;1.500;2023-11-18T09:46:09;9.90;;;3.88;;
81896;SDS011;71360;43.506;1.500;2023-11-18T09:48:45;10.30;;;3.50;;
81896;SDS011;71360;43.506;1.500;2023-11-18T09:51:15;8.25;;;3.47;;
81896;SDS011;71360;43.506;1.500;2023-11-18T09:53:46;8.40;;;3.17;;
81896;SDS011;71360;43.506;1.500;2023-11-18T09:56:18;6.93;;;2.60;;
81896;SDS011;71360;43.506;1.500;2023-11-18T09:59:33;8.70;;;2.75;;
81896;SDS011;71360;43.506;1.500;2023-11-18T10:02:23;10.02;;;2.40;;
81896;SDS011;71360;43.506;1.500;2023-11-18T10:04:49;6.73;;;2.40;;
81896;SDS011;71360;43.506;1.500;2023-11-18T10:07:22;8.27;;;2.92;;
81896;SDS011;71360;43.506;1.500;2023-11-18T10:09:53;6.13;;;2.53;;
81896;SDS011;71360;43.506;1.500;2023-11-18T10:12:22;6.97;;;2.30;;
81896;SDS011;71360;43.506;1.500;2023-11-18T10:14:49;7.72;;;2.33;;
81896;SDS011;71360;43.506;1.500;2023-11-18T10:17:17;5.47;;;2.30;;
81896;SDS011;71360;43.506;1.500;2023-11-18T10:19:50;10.27;;;2.90;;
81896;SDS011;71360;43.506;1.500;2023-11-18T10:22:26;7.22;;;2.10;;
81896;SDS011;71360;43.506;1.500;2023-11-18T10:24:54;7.10;;;2.50;;
81896;SDS011;71360;43.506;1.500;2023-11-18T10:27:25;6.68;;;2.38;;
81896;SDS011;71360;43.506;1.500;2023-11-18T10:29:55;6.10;;;2.20;;
81896;SDS011;71360;43.506;1.500;2023-11-18T10:32:22;6.55;;;2.40;;
81896;SDS011;71360;43.506;1.500;2023-11-18T10:34:52;5.65;;;2.00;;
81896;SDS011;71360;43.506;1.500;2023-11-18T10:37:22;4.63;;;1.38;;
81896;SDS011;71360;43.506;1.500;2023-11-18T10:39:48;6.07;;;1.60;;
81896;SDS011;71360;43.506;1.500;2023-11-18T10:42:20;4.77;;;1.50;;
81896;SDS011;71360;43.506;1.500;2023-11-18T10:44:55;5.28;;;1.50;;
81896;SDS011;71360;43.506;1.500;2023-11-18T10:47:26;5.05;;;1.48;;
81896;SDS011;71360;43.506;1.500;2023-11-18T10:49:53;5.88;;;1.42;;
81896;SDS011;71360;43.506;1.500;2023-11-18T10:52:21;4.95;;;1.27;;
81896;SDS011;71360;43.506;1.500;2023-11-18T10:54:54;4.33;;;1.20;;
81896;SDS011;71360;43.506;1.500;2023-11-18T10:57:21;5.47;;;1.40;;
81896;SDS011;71360;43.506;1.500;2023-11-18T11:00:03;5.40;;;1.70;;
81896;SDS011;71360;43.506;1.500;2023-11-18T11:02:38;4.63;;;1.50;;
81896;SDS011;71360;43.506;1.500;2023-11-18T11:05:06;5.72;;;1.38;;
81896;SDS011;71360;43.506;1.500;2023-11-18T11:07:41;7.60;;;1.40;;
81896;SDS011;71360;43.506;1.500;2023-11-18T11:10:07;4.80;;;1.30;;
81896;SDS011;71360;43.506;1.500;2023-11-18T11:12:36;5.75;;;1.50;;
81896;SDS011;71360;43.506;1.500;2023-11-18T11:15:22;4.00;;;1.40;;
81896;SDS011;71360;43.506;1.500;2023-11-18T11:17:53;5.73;;;1.57;;
81896;SDS011;71360;43.506;1.500;2023-11-18T11:20:27;5.88;;;1.30;;
81896;SDS011;71360;43.506;1.500;2023-11-18T11:31:38;3.93;;;1.33;;
81896;SDS011;71360;43.506;1.500;2023-11-18T11:34:16;5.72;;;1.50;;
81896;SDS011;71360;43.506;1.500;2023-11-18T11:36:49;5.28;;;1.40;;
81896;SDS011;71360;43.506;1.500;2023-11-18T11:39:16;5.43;;;1.42;;
81896;SDS011;71360;43.506;1.500;2023-11-18T11:41:50;4.47;;;1.40;;
81896;SDS011;71360;43.506;1.500;2023-11-18T11:44:17;5.97;;;1.27;;
81896;SDS011;71360;43.506;1.500;2023-11-18T11:46:48;5.28;;;1.20;;
81896;SDS011;71360;43.506;1.500;2023-11-18T11:49:19;4.68;;;1.55;;
81896;SDS011;71360;43.506;1.500;2023-11-18T11:52:03;4.07;;;1.38;;
81896;SDS011;71360;43.506;1.500;2023-11-18T11:54:48;5.10;;;1.30;;
81896;SDS011;71360;43.506;1.500;2023-11-18T11:57:22;3.93;;;1.23;;
81896;SDS011;71360;43.506;1.500;2023-11-18T12:02:17;7.68;;;1.35;;
81896;SDS011;71360;43.506;1.500;2023-11-18T12:04:49;4.10;;;1.30;;
81896;SDS011;71360;43.506;1.500;2023-11-18T12:07:22;4.72;;;1.30;;
81896;SDS011;71360;43.506;1.500;2023-11-18T12:09:51;5.77;;;1.50;;
81896;SDS011;71360;43.506;1.500;2023-11-18T12:12:23;4.75;;;1.30;;
81896;SDS011;71360;43.506;1.500;2023-11-18T12:14:56;3.90;;;1.35;;
81896;SDS011;71360;43.506;1.500;2023-11-18T12:17:25;4.50;;;1.40;;
81896;SDS011;71360;43.506;1.500;2023-11-18T12:19:57;4.65;;;1.50;;
81896;SDS011;71360;43.506;1.500;2023-11-18T12:22:32;5.60;;;1.30;;
81896;SDS011;71360;43.506;1.500;2023-11-18T12:25:39;4.22;;;1.25;;
81896;SDS011;71360;43.506;1.500;2023-11-18T12:28:11;4.03;;;1.23;;
81896;SDS011;71360;43.506;1.500;2023-11-18T12:30:46;5.40;;;1.30;;
81896;SDS011;71360;43.506;1.500;2023-11-18T12:33:21;8.18;;;1.40;;
81896;SDS011;71360;43.506;1.500;2023-11-18T12:38:26;5.70;;;1.27;;
81896;SDS011;71360;43.506;1.500;2023-11-18T12:46:53;4.25;;;1.23;;
81896;SDS011;71360;43.506;1.500;2023-11-18T12:49:23;4.15;;;1.20;;
81896;SDS011;71360;43.506;1.500;2023-11-18T12:51:50;5.82;;;1.30;;
81896;SDS011;71360;43.506;1.500;2023-11-18T12:54:18;4.57;;;1.30;;
81896;SDS011;71360;43.506;1.500;2023-11-18T12:56:44;4.23;;;1.30;;
81896;SDS011;71360;43.506;1.500;2023-11-18T12:59:17;6.88;;;1.23;;
81896;SDS011;71360;43.506;1.500;2023-11-18T13:01:49;4.85;;;1.52;;
81896;SDS011;71360;43.506;1.500;2023-11-18T13:04:24;4.03;;;1.33;;
81896;SDS011;71360;43.506;1.500;2023-11-18T13:06:50;5.53;;;1.40;;
81896;SDS011;71360;43.506;1.500;2023-11-18T13:09:16;4.80;;;1.30;;
81896;SDS011;71360;43.506;1.500;2023-11-18T13:11:56;4.78;;;1.30;;
81896;SDS011;71360;43.506;1.500;2023-11-18T13:14:26;4.95;;;1.23;;
81896;SDS011;71360;43.506;1.500;2023-11-18T13:16:55;5.70;;;1.20;;
81896;SDS011;71360;43.506;1.500;2023-11-18T13:19:25;4.68;;;1.13;;
81896;SDS011;71360;43.506;1.500;2023-11-18T13:21:56;4.60;;;1.20;;
81896;SDS011;71360;43.506;1.500;2023-11-18T13:24:27;5.93;;;1.30;;
81896;SDS011;71360;43.506;1.500;2023-11-18T13:26:54;4.63;;;1.30;;
81896;SDS011;71360;43.506;1.500;2023-11-18T13:29:22;7.50;;;1.48;;
81896;SDS011;71360;43.506;1.500;2023-11-18T13:31:49;4.32;;;1.40;;
81896;SDS011;71360;43.506;1.500;2023-11-18T13:34:18;4.47;;;1.30;;
81896;SDS011;71360;43.506;1.500;2023-11-18T13:36:45;5.10;;;1.30;;
81896;SDS011;71360;43.506;1.500;2023-11-18T13:39:16;5.72;;;1.30;;
81896;SDS011;71360;43.506;1.500;2023-11-18T13:41:48;4.72;;;1.30;;
81896;SDS011;71360;43.506;1.500;2023-11-18T13:47:06;4.53;;;1.20;;
81896;SDS011;71360;43.506;1.500;2023-11-18T13:49:32;4.57;;;1.38;;
81896;SDS011;71360;43.506;1.500;2023-11-18T13:51:59;4.50;;;1.40;;
81896;SDS011;71360;43.506;1.500;2023-11-18T13:54:27;4.82;;;1.30;;
81896;SDS011;71360;43.506;1.500;2023-11-18T13:56:54;5.15;;;1.58;;
81896;SDS011;71360;43.506;1.500;2023-11-18T13:59:24;5.30;;;1.07;;
81896;SDS011;71360;43.506;1.500;2023-11-18T14:01:55;4.45;;;1.20;;
81896;SDS011;71360;43.506;1.500;2023-11-18T14:04:26;5.43;;;1.10;;
81896;SDS011;71360;43.506;1.500;2023-11-18T14:06:52;4.53;;;1.20;;
81896;SDS011;71360;43.506;1.500;2023-11-18T14:09:25;4.28;;;1.20;;
81896;SDS011;71360;43.506;1.500;2023-11-18T14:11:52;5.77;;;1.30;;
81896;SDS011;71360;43.506;1.500;2023-11-18T14:14:20;7.32;;;1.30;;
81896;SDS011;71360;43.506;1.500;2023-11-18T14:16:46;5.22;;;1.25;;
81896;SDS011;71360;43.506;1.500;2023-11-18T14:19:12;4.97;;;1.30;;
81896;SDS011;71360;43.506;1.500;2023-11-18T14:21:38;3.55;;;1.20;;
81896;SDS011;71360;43.506;1.500;2023-11-18T14:24:06;4.88;;;1.27;;
81896;SDS011;71360;43.506;1.500;2023-11-18T14:26:33;4.38;;;1.20;;
81896;SDS011;71360;43.506;1.500;2023-11-18T14:28:58;3.60;;;1.20;;
81896;SDS011;71360;43.506;1.500;2023-11-18T14:31:24;7.73;;;2.00;;
81896;SDS011;71360;43.506;1.500;2023-11-18T14:33:50;4.88;;;1.30;;
81896;SDS011;71360;43.506;1.500;2023-11-18T14:36:16;5.05;;;1.38;;
81896;SDS011;71360;43.506;1.500;2023-11-18T14:38:42;5.50;;;1.30;;
81896;SDS011;71360;43.506;1.500;2023-11-18T14:41:08;4.13;;;1.00;;
81896;SDS011;71360;43.506;1.500;2023-11-18T14:43:33;5.38;;;1.10;;
81896;SDS011;71360;43.506;1.500;2023-11-18T14:45:59;4.17;;;1.30;;
81896;SDS011;71360;43.506;1.500;2023-11-18T14:48:25;4.80;;;1.20;;
81896;SDS011;71360;43.506;1.500;2023-11-18T14:50:50;4.27;;;1.40;;
81896;SDS011;71360;43.506;1.500;2023-11-18T14:53:16;5.07;;;1.30;;
81896;SDS011;71360;43.506;1.500;2023-11-18T14:55:42;6.05;;;1.23;;
81896;SDS011;71360;43.506;1.500;2023-11-18T14:58:08;4.18;;;1.23;;
81896;SDS011;71360;43.506;1.500;2023-11-18T15:00:36;5.57;;;1.40;;
81896;SDS011;71360;43.506;1.500;2023-11-18T15:03:02;4.20;;;1.20;;
81896;SDS011;71360;43.506;1.500;2023-11-18T15:05:28;6.97;;;1.30;;
81896;SDS011;71360;43.506;1.500;2023-11-18T15:07:54;5.45;;;1.70;;
81896;SDS011;71360;43.506;1.500;2023-11-18T15:10:21;4.90;;;1.48;;
81896;SDS011;71360;43.506;1.500;2023-11-18T15:12:48;3.65;;;1.40;;
81896;SDS011;71360;43.506;1.500;2023-11-18T15:15:18;5.60;;;1.40;;